Terminal Aerodrome Forecast
Issued by NWS

Home | Current Version | Previous Version | Text Only | Print | Product List | Glossary On
Versions: 1 2 3 4 5 6 7 8 9 10 11 12 13 14 15 16 17 18 19 20 21 22 23 24 25 26 27 28 29 30 31 32 33 34 35 36 37
000
FTUS45 KGJT 280308 AAA
TAFEGE
TAF AMD
KEGE 280308Z 2803/2824 10004KT P6SM VCSH BKN100
      TEMPO 2803/2805 VRB15G25KT -SHRA SCT060 BKN080
     FM280500 09006KT P6SM SCT100
     FM281000 00000KT P6SM FEW100
     FM281900 28007KT P6SM SCT100
      AMD LTD TO CLD VIS AND WIND TIL 281300=

USA.gov is the U.S. government's official web portal to all federal, state and local government web resources and services.